createdAt,value
2023-09-24T00:00:22.385Z,99405.50
2023-09-24T00:02:50.585Z,99412.59
2023-09-24T00:05:17.556Z,99419.69
2023-09-24T00:07:44.197Z,99421.47
2023-09-24T00:10:11.410Z,99424.16
2023-09-24T00:12:39.386Z,99427.78
2023-09-24T00:15:08.346Z,99433.09
2023-09-24T00:17:35.390Z,99420.66
2023-09-24T00:20:01.948Z,99426.00
2023-09-24T00:22:28.524Z,99425.13
2023-09-24T00:24:55.010Z,99430.41
2023-09-24T00:27:21.567Z,99426.00
2023-09-24T00:29:48.201Z,99431.31
2023-09-24T00:32:14.875Z,99441.94
2023-09-24T00:34:41.522Z,99441.06
2023-09-24T00:37:08.076Z,99442.84
2023-09-24T00:39:34.588Z,99442.84
2023-09-24T00:42:01.246Z,99452.59
2023-09-24T00:44:28.005Z,99450.81
2023-09-24T00:46:57.114Z,99449.00
2023-09-24T00:49:24.080Z,99456.06
2023-09-24T00:51:50.712Z,99453.41
2023-09-24T00:54:18.469Z,99455.16
2023-09-24T00:56:45.357Z,99451.69
2023-09-24T00:59:11.931Z,99459.69
2023-09-24T01:01:39.435Z,99463.25
2023-09-24T01:04:07.278Z,99452.66
2023-09-24T01:06:34.733Z,99456.19
2023-09-24T01:09:04.436Z,99461.47
2023-09-24T01:11:32.838Z,99465.06
2023-09-24T01:13:59.553Z,99457.97
2023-09-24T01:16:26.160Z,99457.97
2023-09-24T01:18:54.620Z,99468.59
2023-09-24T01:21:22.013Z,99464.22
2023-09-24T01:23:50.479Z,99473.09
2023-09-24T01:26:19.230Z,99478.38
2023-09-24T01:28:45.908Z,99481.97
2023-09-24T01:31:13.228Z,99487.25
2023-09-24T01:33:41.017Z,99486.34
2023-09-24T01:36:11.522Z,99496.13
2023-09-24T01:38:43.191Z,99499.63
2023-09-24T01:41:13.346Z,99504.06
2023-09-24T01:43:44.038Z,99503.16
2023-09-24T01:46:18.147Z,99506.69
2023-09-24T01:48:48.573Z,99501.38
2023-09-24T01:51:15.096Z,99507.63
2023-09-24T01:53:43.297Z,99511.19
2023-09-24T01:56:10.706Z,99504.06
2023-09-24T01:58:39.263Z,99511.19
2023-09-24T02:01:08.130Z,99508.50
2023-09-24T02:03:36.204Z,99501.41
2023-09-24T02:06:03.939Z,99514.66
2023-09-24T02:08:31.815Z,99511.16
2023-09-24T02:10:58.707Z,99512.94
2023-09-24T02:13:25.231Z,99522.66
2023-09-24T02:15:51.785Z,99512.00
2023-09-24T02:18:19.117Z,99521.75
2023-09-24T02:20:49.630Z,99520.00
2023-09-24T02:23:18.270Z,99527.06
2023-09-24T02:25:46.315Z,99517.34
2023-09-24T02:28:14.136Z,99514.69
2023-09-24T02:30:41.730Z,99528.88
2023-09-24T02:33:08.599Z,99524.44
2023-09-24T02:35:35.697Z,99519.06
2023-09-24T02:38:02.399Z,99533.25
2023-09-24T02:40:29.346Z,99527.06
2023-09-24T02:43:00.802Z,99526.16
2023-09-24T02:45:28.903Z,99533.25
2023-09-24T02:47:55.632Z,99539.44
2023-09-24T02:50:25.152Z,99541.19
2023-09-24T02:52:56.248Z,99544.75
2023-09-24T02:55:24.199Z,99543.91
2023-09-24T02:57:53.744Z,99543.03
2023-09-24T03:00:44.138Z,99545.69
2023-09-24T03:03:11.113Z,99545.66
2023-09-24T03:05:38.078Z,99540.31
2023-09-24T03:08:05.711Z,99552.72
2023-09-24T03:10:34.056Z,99550.97
2023-09-24T03:13:01.144Z,99551.84
2023-09-24T03:15:28.124Z,99560.72
2023-09-24T03:17:55.120Z,99568.66
2023-09-24T03:20:21.788Z,99572.22
2023-09-24T03:22:50.286Z,99577.56
2023-09-24T03:25:17.822Z,99573.13
2023-09-24T03:27:45.806Z,99576.66
2023-09-24T03:30:15.274Z,99579.34
2023-09-24T03:32:43.004Z,99576.66
2023-09-24T03:35:11.475Z,99581.13
2023-09-24T03:37:39.176Z,99576.69
2023-09-24T03:40:07.226Z,99581.13
2023-09-24T03:42:33.999Z,99586.47
2023-09-24T03:45:01.472Z,99594.47
2023-09-24T03:47:29.069Z,99584.66
2023-09-24T03:49:55.596Z,99590.00
2023-09-24T03:52:22.128Z,99601.53
2023-09-24T03:54:48.600Z,99604.22
2023-09-24T03:57:15.072Z,99606.88
2023-09-24T03:59:41.836Z,99610.44
2023-09-24T04:02:09.130Z,99614.88
2023-09-24T04:04:38.083Z,99619.31
2023-09-24T04:07:06.393Z,99621.09
2023-09-24T04:09:34.202Z,99623.75
2023-09-24T04:12:01.492Z,99627.25
2023-09-24T04:14:29.081Z,99627.28
2023-09-24T04:16:58.751Z,99631.72
2023-09-24T04:19:26.540Z,99636.16
2023-09-24T04:21:53.360Z,99642.38
2023-09-24T04:24:20.274Z,99647.69
2023-09-24T04:26:47.834Z,99650.31
2023-09-24T04:29:18.359Z,99652.09
2023-09-24T04:31:44.893Z,99652.09
2023-09-24T04:34:13.773Z,99660.09
2023-09-24T04:36:41.612Z,99660.97
2023-09-24T04:39:12.120Z,99662.75
2023-09-24T04:41:44.453Z,99662.75
2023-09-24T04:44:11.153Z,99660.09
2023-09-24T04:46:37.989Z,99665.41
2023-09-24T04:49:06.196Z,99667.22
2023-09-24T04:51:35.769Z,99680.53
2023-09-24T04:54:03.639Z,99680.50
2023-09-24T04:56:30.852Z,99677.00
2023-09-24T04:58:57.959Z,99682.31
2023-09-24T05:01:24.578Z,99684.06
2023-09-24T05:03:52.402Z,99686.75
2023-09-24T05:06:19.833Z,99689.38
2023-09-24T05:08:47.735Z,99692.94
2023-09-24T05:11:15.070Z,99692.94
2023-09-24T05:13:41.937Z,99703.63
2023-09-24T05:16:09.855Z,99704.50
2023-09-24T05:18:37.483Z,99713.34
2023-09-24T05:21:04.688Z,99718.69
2023-09-24T05:23:31.427Z,99732.88
2023-09-24T05:25:58.063Z,99734.63
2023-09-24T05:28:24.761Z,99739.09
2023-09-24T05:30:55.146Z,99735.53
2023-09-24T05:33:22.796Z,99744.41
2023-09-24T05:35:53.553Z,99745.31
2023-09-24T05:38:20.853Z,99759.50
2023-09-24T05:40:47.659Z,99751.50
2023-09-24T05:43:14.661Z,99769.25
2023-09-24T05:45:48.380Z,99769.25
2023-09-24T05:48:19.093Z,99769.25
2023-09-24T05:50:46.545Z,99774.56
2023-09-24T05:53:14.100Z,99771.91
2023-09-24T05:55:40.719Z,99770.13
2023-09-24T05:58:08.360Z,99787.88
2023-09-24T06:00:39.070Z,99786.97
2023-09-24T06:03:05.875Z,99791.41
2023-09-24T06:05:32.597Z,99786.09
2023-09-24T06:07:59.142Z,99794.97
2023-09-24T06:10:25.779Z,99809.16
2023-09-24T06:12:54.294Z,99803.81
2023-09-24T06:15:20.986Z,99798.56
2023-09-24T06:17:48.341Z,99807.41
2023-09-24T06:20:17.095Z,99808.28
2023-09-24T06:22:47.041Z,99805.63
2023-09-24T06:25:13.945Z,99807.41
2023-09-24T06:27:41.642Z,99812.75
2023-09-24T06:30:11.877Z,99810.97
2023-09-24T06:32:38.858Z,99810.09
2023-09-24T06:35:06.142Z,99811.84
2023-09-24T06:37:32.776Z,99813.63
2023-09-24T06:39:59.759Z,99816.31
2023-09-24T06:42:26.333Z,99812.69
2023-09-24T06:44:53.376Z,99826.00
2023-09-24T06:47:19.950Z,99820.72
2023-09-24T06:49:52.889Z,99826.94
2023-09-24T06:52:19.415Z,99819.81
2023-09-24T06:54:46.214Z,99821.59
2023-09-24T06:57:13.180Z,99826.91
2023-09-24T06:59:40.029Z,99828.72
2023-09-24T07:02:07.558Z,99832.28
2023-09-24T07:04:34.860Z,99834.00
2023-09-24T07:07:02.914Z,99841.09
2023-09-24T07:09:30.440Z,99846.44
2023-09-24T07:11:57.098Z,99846.44
2023-09-24T07:14:24.166Z,99858.00
2023-09-24T07:16:50.786Z,99846.47
2023-09-24T07:19:17.956Z,99847.34
2023-09-24T07:21:44.580Z,99846.44
2023-09-24T07:24:11.187Z,99845.53
2023-09-24T07:26:37.861Z,99850.84
2023-09-24T07:29:04.842Z,99854.38
2023-09-24T07:31:32.272Z,99853.53
2023-09-24T07:34:01.976Z,99865.94
2023-09-24T07:36:34.625Z,99864.13
2023-09-24T07:39:08.876Z,99865.94
2023-09-24T07:41:35.613Z,99876.59
2023-09-24T07:44:02.323Z,99878.34
2023-09-24T07:46:28.928Z,99881.00
2023-09-24T07:48:55.661Z,99887.19
2023-09-24T07:51:23.451Z,99877.38
2023-09-24T07:53:51.772Z,99886.25
2023-09-24T07:56:19.168Z,99887.16
2023-09-24T07:58:45.718Z,99888.00
2023-09-24T08:01:15.124Z,99885.31
2023-09-24T08:03:45.908Z,99885.34
2023-09-24T08:06:13.512Z,99880.84
2023-09-24T08:08:49.851Z,99889.75
2023-09-24T08:11:18.639Z,99892.50
2023-09-24T08:13:45.330Z,99894.31
2023-09-24T08:16:12.253Z,99899.66
2023-09-24T08:18:39.202Z,99896.97
2023-09-24T08:21:05.981Z,99900.50
2023-09-24T08:23:32.913Z,99896.88
2023-09-24T08:26:00.627Z,99895.91
2023-09-24T08:28:27.250Z,99892.31
2023-09-24T08:30:54.404Z,99894.03
2023-09-24T08:33:21.090Z,99893.91
2023-09-24T08:35:48.356Z,99892.00
2023-09-24T08:38:16.093Z,99899.03
2023-09-24T08:40:42.611Z,99895.44
2023-09-24T08:43:16.886Z,99902.25
2023-09-24T08:45:43.473Z,99899.50
2023-09-24T08:48:11.956Z,99902.31
2023-09-24T08:50:41.035Z,99898.75
2023-09-24T08:53:12.504Z,99903.88
2023-09-24T08:55:42.560Z,99908.91
2023-09-24T08:58:09.155Z,99898.88
2023-09-24T09:00:35.900Z,99906.91
2023-09-24T09:03:06.392Z,99903.56
2023-09-24T09:05:37.749Z,99908.63
2023-09-24T09:08:05.051Z,99901.09
2023-09-24T09:10:36.341Z,99891.19
2023-09-24T09:13:12.527Z,99884.81
2023-09-24T09:15:40.269Z,99886.47
2023-09-24T09:18:08.083Z,99883.69
2023-09-24T09:20:46.240Z,99891.06
2023-09-24T09:23:16.991Z,99886.06
2023-09-24T09:25:54.179Z,99877.94
2023-09-24T09:28:22.441Z,99889.19
2023-09-24T09:31:09.144Z,99883.50
2023-09-24T09:33:43.494Z,99883.09
2023-09-24T09:36:27.318Z,99885.16
2023-09-24T09:38:55.642Z,99880.50
2023-09-24T09:41:24.847Z,99886.47
2023-09-24T09:43:53.564Z,99878.41
2023-09-24T09:46:24.840Z,99880.66
2023-09-24T09:48:56.679Z,99871.88
2023-09-24T09:51:24.805Z,99878.13
2023-09-24T09:53:53.934Z,99879.16
2023-09-24T09:56:24.268Z,99873.75
2023-09-24T09:58:52.791Z,99868.56
2023-09-24T10:01:22.696Z,99875.69
2023-09-24T10:03:54.202Z,99876.50
2023-09-24T10:06:21.564Z,99875.56
2023-09-24T10:08:51.637Z,99873.25
2023-09-24T10:11:33.727Z,99873.97
2023-09-24T10:14:06.951Z,99867.06
2023-09-24T10:16:39.363Z,99870.59
2023-09-24T10:19:14.568Z,99866.84
2023-09-24T10:21:44.181Z,99857.56
2023-09-24T10:24:13.636Z,99865.53
2023-09-24T10:27:08.426Z,99868.56
2023-09-24T10:29:46.108Z,99857.97
2023-09-24T10:32:13.194Z,99858.13
2023-09-24T10:34:55.270Z,99861.84
2023-09-24T10:37:39.676Z,99863.72
2023-09-24T10:40:11.471Z,99857.00
2023-09-24T10:42:43.271Z,99858.69
2023-09-24T10:45:10.921Z,99854.69
2023-09-24T10:47:47.671Z,99852.41
2023-09-24T10:50:17.382Z,99854.44
2023-09-24T10:53:01.030Z,99858.69
2023-09-24T10:55:30.794Z,99860.19
2023-09-24T10:58:10.674Z,99861.22
2023-09-24T11:00:37.369Z,99858.59
2023-09-24T11:03:08.842Z,99868.56
2023-09-24T11:05:42.838Z,99860.78
2023-09-24T11:08:10.988Z,99860.63
2023-09-24T11:10:38.326Z,99864.09
2023-09-24T11:13:06.140Z,99867.84
2023-09-24T11:15:33.632Z,99862.47
2023-09-24T11:18:01.145Z,99861.81
2023-09-24T11:20:32.111Z,99863.06
2023-09-24T11:23:10.119Z,99865.66
2023-09-24T11:25:37.348Z,99869.50
2023-09-24T11:28:05.109Z,99867.88
2023-09-24T11:30:44.320Z,99857.50
2023-09-24T11:33:17.464Z,99860.53
2023-09-24T11:35:45.847Z,99861.22
2023-09-24T11:38:12.654Z,99857.59
2023-09-24T11:40:41.198Z,99856.50
2023-09-24T11:43:13.224Z,99862.38
2023-09-24T11:45:49.363Z,99858.47
2023-09-24T11:48:25.842Z,99853.78
2023-09-24T11:50:54.685Z,99854.47
2023-09-24T11:53:24.723Z,99852.00
2023-09-24T11:55:54.560Z,99847.19
2023-09-24T11:58:23.245Z,99844.88
2023-09-24T12:00:49.982Z,99850.63
2023-09-24T12:03:16.648Z,99849.41
2023-09-24T12:05:43.342Z,99846.28
2023-09-24T12:08:10.098Z,99844.44
2023-09-24T12:10:41.414Z,99845.78
2023-09-24T12:13:20.178Z,99845.44
2023-09-24T12:15:47.076Z,99843.88
2023-09-24T12:18:13.794Z,99848.78
2023-09-24T12:20:42.301Z,99846.94
2023-09-24T12:23:14.272Z,99837.34
2023-09-24T12:25:43.501Z,99841.66
2023-09-24T12:28:11.774Z,99841.38
2023-09-24T12:30:39.531Z,99840.63
2023-09-24T12:33:09.651Z,99837.56
2023-09-24T12:35:44.398Z,99843.06
2023-09-24T12:38:11.561Z,99843.44
2023-09-24T12:40:38.625Z,99837.63
2023-09-24T12:43:05.427Z,99840.22
2023-09-24T12:45:32.401Z,99838.56
2023-09-24T12:47:59.053Z,99839.56
2023-09-24T12:50:27.015Z,99843.97
2023-09-24T12:52:53.747Z,99841.41
2023-09-24T12:55:20.795Z,99843.00
2023-09-24T12:57:47.413Z,99843.63
2023-09-24T13:00:16.159Z,99843.88
2023-09-24T13:02:48.643Z,99837.69
2023-09-24T13:05:17.400Z,99837.13
2023-09-24T13:07:45.869Z,99837.28
2023-09-24T13:10:15.646Z,99838.63
2023-09-24T13:12:43.292Z,99835.63
2023-09-24T13:15:10.732Z,99837.84
2023-09-24T13:17:38.222Z,99836.34
2023-09-24T13:20:05.763Z,99834.59
2023-09-24T13:22:33.786Z,99837.28
2023-09-24T13:25:00.405Z,99835.59
2023-09-24T13:27:26.997Z,99826.75
2023-09-24T13:29:53.849Z,99827.81
2023-09-24T13:32:22.241Z,99828.69
2023-09-24T13:34:49.408Z,99831.00
2023-09-24T13:37:19.098Z,99825.44
2023-09-24T13:39:45.608Z,99822.66
2023-09-24T13:42:12.260Z,99814.03
2023-09-24T13:44:38.892Z,99821.19
2023-09-24T13:47:05.586Z,99813.06
2023-09-24T13:49:38.641Z,99812.09
2023-09-24T13:52:05.338Z,99812.06
2023-09-24T13:54:33.253Z,99814.91
2023-09-24T13:57:00.788Z,99807.78
2023-09-24T13:59:27.540Z,99812.31
2023-09-24T14:01:54.151Z,99810.78
2023-09-24T14:04:20.910Z,99807.44
2023-09-24T14:06:48.778Z,99811.16
2023-09-24T14:09:34.831Z,99806.72
2023-09-24T14:12:22.750Z,99811.91
2023-09-24T14:14:55.850Z,99812.00
2023-09-24T14:17:23.086Z,99807.69
2023-09-24T14:19:50.044Z,99807.59
2023-09-24T14:22:16.631Z,99803.72
2023-09-24T14:24:43.658Z,99807.94
2023-09-24T14:27:10.412Z,99805.94
2023-09-24T14:29:37.364Z,99809.56
2023-09-24T14:32:05.275Z,99810.72
2023-09-24T14:34:31.868Z,99812.63
2023-09-24T14:36:58.410Z,99810.88
2023-09-24T14:39:25.131Z,99813.38
2023-09-24T14:41:51.759Z,99809.75
2023-09-24T14:44:18.827Z,99809.75
2023-09-24T14:46:46.166Z,99805.31
2023-09-24T14:49:13.443Z,99798.34
2023-09-24T14:51:40.325Z,99796.53
2023-09-24T14:54:07.049Z,99807.28
2023-09-24T14:56:33.873Z,99803.72
2023-09-24T14:59:00.412Z,99798.38
2023-09-24T15:01:28.209Z,99806.38
2023-09-24T15:03:54.855Z,99806.56
2023-09-24T15:06:21.500Z,99801.31
2023-09-24T15:08:48.097Z,99802.22
2023-09-24T15:11:14.642Z,99797.97
2023-09-24T15:13:43.019Z,99803.31
2023-09-24T15:16:10.336Z,99797.25
2023-09-24T15:18:36.994Z,99807.06
2023-09-24T15:21:11.203Z,99788.28
2023-09-24T15:23:38.533Z,99793.66
2023-09-24T15:26:05.612Z,99793.66
2023-09-24T15:28:32.975Z,99799.91
2023-09-24T15:30:59.508Z,99798.16
2023-09-24T15:33:26.112Z,99804.53
2023-09-24T15:35:52.790Z,99802.81
2023-09-24T15:38:19.311Z,99798.41
2023-09-24T15:40:46.290Z,99799.28
2023-09-24T15:43:12.817Z,99795.75
2023-09-24T15:45:39.416Z,99800.22
2023-09-24T15:48:06.658Z,99810.97
2023-09-24T15:50:33.819Z,99812.75
2023-09-24T15:53:00.729Z,99801.22
2023-09-24T15:55:27.365Z,99806.59
2023-09-24T15:57:53.942Z,99809.28
2023-09-24T16:00:21.156Z,99802.19
2023-09-24T16:02:47.907Z,99810.22
2023-09-24T16:05:14.970Z,99810.28
2023-09-24T16:07:41.880Z,99812.97
2023-09-24T16:10:08.901Z,99812.13
2023-09-24T16:12:35.843Z,99806.75
2023-09-24T16:15:02.605Z,99808.53
2023-09-24T16:17:30.648Z,99806.81
2023-09-24T16:19:57.723Z,99805.97
2023-09-24T16:22:24.511Z,99808.69
2023-09-24T16:24:54.924Z,99811.44
2023-09-24T16:27:23.031Z,99808.78
2023-09-24T16:29:51.708Z,99807.00
2023-09-24T16:32:19.498Z,99815.06
2023-09-24T16:34:49.509Z,99812.41
2023-09-24T16:37:16.197Z,99813.34
2023-09-24T16:39:42.837Z,99818.69
2023-09-24T16:42:09.377Z,99816.88
2023-09-24T16:44:35.936Z,99817.78
2023-09-24T16:47:02.628Z,99815.09
2023-09-24T16:49:31.188Z,99819.69
2023-09-24T16:51:57.887Z,99820.56
2023-09-24T16:54:26.967Z,99817.06
2023-09-24T16:56:54.538Z,99818.91
2023-09-24T16:59:22.241Z,99826.03
2023-09-24T17:01:49.632Z,99821.59
2023-09-24T17:04:16.482Z,99827.84
2023-09-24T17:06:43.187Z,99823.47
2023-09-24T17:09:11.203Z,99832.38
2023-09-24T17:11:37.976Z,99824.34
2023-09-24T17:14:05.383Z,99825.22
2023-09-24T17:16:32.043Z,99820.72
2023-09-24T17:18:58.737Z,99826.94
2023-09-24T17:21:25.506Z,99827.94
2023-09-24T17:23:52.596Z,99830.66
2023-09-24T17:26:21.433Z,99834.25
2023-09-24T17:28:48.849Z,99833.41
2023-09-24T17:31:15.631Z,99839.66
2023-09-24T17:33:43.473Z,99838.75
2023-09-24T17:36:12.891Z,99845.84
2023-09-24T17:38:39.811Z,99835.22
2023-09-24T17:41:06.500Z,99833.44
2023-09-24T17:43:33.013Z,99837.91
2023-09-24T17:46:01.558Z,99836.19
2023-09-24T17:48:28.424Z,99837.16
2023-09-24T17:51:05.890Z,99838.94
2023-09-24T17:53:33.758Z,99840.72
2023-09-24T17:56:01.866Z,99838.06
2023-09-24T17:58:28.999Z,99837.22
2023-09-24T18:01:12.788Z,99833.69
2023-09-24T18:03:43.905Z,99834.53
2023-09-24T18:06:11.723Z,99837.22
2023-09-24T18:08:39.257Z,99828.34
2023-09-24T18:11:05.925Z,99833.69
2023-09-24T18:13:33.033Z,99831.06
2023-09-24T18:16:00.992Z,99845.28
2023-09-24T18:18:29.525Z,99835.50
2023-09-24T18:21:01.467Z,99846.19
2023-09-24T18:23:33.909Z,99841.75
2023-09-24T18:26:01.066Z,99849.78
2023-09-24T18:28:27.638Z,99839.13
2023-09-24T18:30:54.430Z,99838.25
2023-09-24T18:33:23.860Z,99844.47
2023-09-24T18:35:54.975Z,99847.16
2023-09-24T18:38:21.940Z,99848.91
2023-09-24T18:40:48.855Z,99844.47
2023-09-24T18:43:15.532Z,99843.59
2023-09-24T18:45:42.581Z,99848.91
2023-09-24T18:48:09.197Z,99845.34
2023-09-24T18:50:36.768Z,99855.13
2023-09-24T18:53:04.002Z,99852.50
2023-09-24T18:55:30.643Z,99850.69
2023-09-24T18:58:00.623Z,99845.41
2023-09-24T19:00:27.173Z,99851.63
2023-09-24T19:02:53.916Z,99856.97
2023-09-24T19:05:23.831Z,99858.75
2023-09-24T19:07:50.588Z,99865.88
2023-09-24T19:10:18.378Z,99865.88
2023-09-24T19:12:48.077Z,99856.97
2023-09-24T19:15:16.488Z,99864.97
2023-09-24T19:17:43.488Z,99862.31
2023-09-24T19:20:11.459Z,99864.97
2023-09-24T19:22:38.047Z,99868.53
2023-09-24T19:25:04.838Z,99864.97
2023-09-24T19:27:33.499Z,99867.63
2023-09-24T19:30:00.225Z,99871.19
2023-09-24T19:32:27.875Z,99868.50
2023-09-24T19:34:54.872Z,99868.53
2023-09-24T19:37:25.028Z,99870.31
2023-09-24T19:39:51.660Z,99874.75
2023-09-24T19:42:24.515Z,99873.84
2023-09-24T19:44:51.185Z,99870.31
2023-09-24T19:47:20.196Z,99881.88
2023-09-24T19:49:47.048Z,99880.13
2023-09-24T19:52:14.657Z,99876.56
2023-09-24T19:54:42.686Z,99879.22
2023-09-24T19:57:09.322Z,99883.66
2023-09-24T19:59:35.837Z,99880.13
2023-09-24T20:02:02.394Z,99876.56
2023-09-24T20:04:29.835Z,99879.22
2023-09-24T20:06:59.101Z,99876.56
2023-09-24T20:09:27.481Z,99874.81
2023-09-24T20:11:54.181Z,99873.97
2023-09-24T20:14:23.954Z,99871.28
2023-09-24T20:16:53.885Z,99881.06
2023-09-24T20:19:20.740Z,99878.41
2023-09-24T20:21:47.230Z,99873.97
2023-09-24T20:24:15.496Z,99881.06
2023-09-24T20:26:46.290Z,99878.41
2023-09-24T20:29:13.175Z,99882.84
2023-09-24T20:31:41.316Z,99874.88
2023-09-24T20:34:08.897Z,99887.31
2023-09-24T20:36:36.249Z,99882.84
2023-09-24T20:39:07.210Z,99881.94
2023-09-24T20:41:35.765Z,99883.72
2023-09-24T20:44:02.550Z,99879.28
2023-09-24T20:46:42.001Z,99887.28
2023-09-24T20:49:10.254Z,99888.13
2023-09-24T20:51:37.420Z,99885.47
2023-09-24T20:54:04.377Z,99891.69
2023-09-24T20:56:31.078Z,99886.38
2023-09-24T20:59:01.977Z,99894.34
2023-09-24T21:01:28.568Z,99891.69
2023-09-24T21:03:55.299Z,99888.16
2023-09-24T21:06:21.876Z,99883.69
2023-09-24T21:08:48.803Z,99888.16
2023-09-24T21:11:15.968Z,99881.94
2023-09-24T21:13:44.269Z,99886.38
2023-09-24T21:16:10.850Z,99882.84
2023-09-24T21:18:37.835Z,99889.03
2023-09-24T21:21:04.502Z,99881.94
2023-09-24T21:23:31.160Z,99881.06
2023-09-24T21:26:05.392Z,99880.16
2023-09-24T21:28:33.016Z,99880.16
2023-09-24T21:31:07.392Z,99881.94
2023-09-24T21:33:35.113Z,99876.59
2023-09-24T21:36:03.364Z,99886.34
2023-09-24T21:38:30.030Z,99878.31
2023-09-24T21:40:57.227Z,99872.09
2023-09-24T21:43:30.659Z,99880.97
2023-09-24T21:46:01.889Z,99876.56
2023-09-24T21:48:29.483Z,99879.22
2023-09-24T21:50:56.359Z,99872.13
2023-09-24T21:53:23.012Z,99864.13
2023-09-24T21:55:50.273Z,99874.81
2023-09-24T21:58:18.003Z,99858.84
2023-09-24T22:00:45.046Z,99871.22
2023-09-24T22:03:12.335Z,99867.69
2023-09-24T22:05:43.452Z,99868.56
2023-09-24T22:08:11.091Z,99853.50
2023-09-24T22:10:38.286Z,99854.41
2023-09-24T22:13:04.945Z,99842.03
2023-09-24T22:15:31.534Z,99846.47
2023-09-24T22:17:58.161Z,99843.78
2023-09-24T22:20:24.827Z,99837.56
2023-09-24T22:22:51.745Z,99837.56
2023-09-24T22:25:18.332Z,99830.44
2023-09-24T22:27:45.418Z,99831.34
2023-09-24T22:30:13.993Z,99828.66
2023-09-24T22:32:41.633Z,99826.03
2023-09-24T22:35:11.751Z,99826.00
2023-09-24T22:37:39.557Z,99822.50
2023-09-24T22:40:08.583Z,99821.59
2023-09-24T22:42:36.206Z,99821.59
2023-09-24T22:45:07.642Z,99811.84
2023-09-24T22:47:34.655Z,99812.75
2023-09-24T22:50:01.338Z,99820.69
2023-09-24T22:52:27.903Z,99813.59
2023-09-24T22:54:54.412Z,99809.19
2023-09-24T22:57:21.507Z,99802.06
2023-09-24T22:59:48.154Z,99803.84
2023-09-24T23:02:14.632Z,99799.41
2023-09-24T23:04:41.722Z,99803.84
2023-09-24T23:07:09.042Z,99801.19
2023-09-24T23:09:36.842Z,99801.19
2023-09-24T23:12:04.303Z,99797.66
2023-09-24T23:14:30.889Z,99788.75
2023-09-24T23:16:57.428Z,99784.31
2023-09-24T23:19:26.864Z,99777.19
2023-09-24T23:21:53.544Z,99781.69
2023-09-24T23:24:21.174Z,99784.34
2023-09-24T23:26:47.706Z,99787.00
2023-09-24T23:29:14.904Z,99791.41
2023-09-24T23:31:41.467Z,99794.06
2023-09-24T23:34:10.171Z,99795.84
2023-09-24T23:36:37.836Z,99786.97
2023-09-24T23:39:13.352Z,99785.19
2023-09-24T23:41:40.107Z,99778.06
2023-09-24T23:44:08.304Z,99784.28
2023-09-24T23:46:35.201Z,99787.84
2023-09-24T23:49:02.717Z,99777.22
2023-09-24T23:51:29.311Z,99778.97
2023-09-24T23:53:55.904Z,99782.53
2023-09-24T23:56:22.682Z,99776.31
2023-09-24T23:58:51.031Z,99777.19
